sensor_id;sensor_type;location;lat;lon;timestamp;pressure;altitude;pressure_sealevel;temperature;humidity
54870;BME280;40756;-37.950;145.008;2023-08-21T00:00:48;101768.06;;;16.38;44.40
54870;BME280;40756;-37.950;145.008;2023-08-21T00:03:17;101766.02;;;17.48;44.07
54870;BME280;40756;-37.950;145.008;2023-08-21T00:05:47;101769.20;;;16.66;43.81
54870;BME280;40756;-37.950;145.008;2023-08-21T00:08:17;101769.10;;;16.57;43.78
54870;BME280;40756;-37.950;145.008;2023-08-21T00:10:47;101764.89;;;16.57;44.28
54870;BME280;40756;-37.950;145.008;2023-08-21T00:13:16;101772.61;;;16.91;44.25
54870;BME280;40756;-37.950;145.008;2023-08-21T00:15:46;101770.33;;;16.75;44.48
54870;BME280;40756;-37.950;145.008;2023-08-21T00:18:15;101763.83;;;16.46;44.82
54870;BME280;40756;-37.950;145.008;2023-08-21T00:20:45;101753.83;;;16.43;44.52
54870;BME280;40756;-37.950;145.008;2023-08-21T00:23:14;101755.15;;;17.03;44.21
54870;BME280;40756;-37.950;145.008;2023-08-21T00:25:48;101753.48;;;16.30;45.13
54870;BME280;40756;-37.950;145.008;2023-08-21T00:28:17;101745.55;;;16.82;44.96
54870;BME280;40756;-37.950;145.008;2023-08-21T00:30:46;101748.82;;;16.94;44.91
54870;BME280;40756;-37.950;145.008;2023-08-21T00:33:16;101740.92;;;16.97;44.29
54870;BME280;40756;-37.950;145.008;2023-08-21T00:35:46;101734.29;;;16.72;44.28
54870;BME280;40756;-37.950;145.008;2023-08-21T00:38:15;101728.69;;;17.00;44.15
54870;BME280;40756;-37.950;145.008;2023-08-21T00:40:45;101736.87;;;17.43;43.73
54870;BME280;40756;-37.950;145.008;2023-08-21T00:43:14;101738.45;;;16.61;44.53
54870;BME280;40756;-37.950;145.008;2023-08-21T00:45:45;101740.78;;;17.48;43.62
54870;BME280;40756;-37.950;145.008;2023-08-21T00:48:15;101737.40;;;16.67;43.97
54870;BME280;40756;-37.950;145.008;2023-08-21T00:50:45;101738.60;;;17.15;43.61
54870;BME280;40756;-37.950;145.008;2023-08-21T00:53:15;101736.83;;;17.23;43.67
54870;BME280;40756;-37.950;145.008;2023-08-21T00:55:45;101735.95;;;16.41;44.58
54870;BME280;40756;-37.950;145.008;2023-08-21T00:58:15;101727.53;;;17.31;43.93
54870;BME280;40756;-37.950;145.008;2023-08-21T01:00:47;101726.04;;;17.06;43.59
54870;BME280;40756;-37.950;145.008;2023-08-21T01:03:18;101726.55;;;16.63;43.75
54870;BME280;40756;-37.950;145.008;2023-08-21T01:05:47;101712.97;;;16.19;43.84
54870;BME280;40756;-37.950;145.008;2023-08-21T01:08:25;101705.10;;;17.10;43.00
54870;BME280;40756;-37.950;145.008;2023-08-21T01:11:09;101696.98;;;17.30;42.52
54870;BME280;40756;-37.950;145.008;2023-08-21T01:13:51;101695.63;;;18.22;41.20
54870;BME280;40756;-37.950;145.008;2023-08-21T01:16:24;101688.14;;;18.45;40.29
54870;BME280;40756;-37.950;145.008;2023-08-21T01:18:54;101685.62;;;17.38;40.83
54870;BME280;40756;-37.950;145.008;2023-08-21T01:21:24;101681.56;;;18.43;40.13
54870;BME280;40756;-37.950;145.008;2023-08-21T01:23:54;101674.71;;;18.33;39.74
54870;BME280;40756;-37.950;145.008;2023-08-21T01:26:24;101675.33;;;17.79;40.21
54870;BME280;40756;-37.950;145.008;2023-08-21T01:28:53;101670.36;;;18.42;39.84
54870;BME280;40756;-37.950;145.008;2023-08-21T01:31:28;101672.91;;;18.64;39.40
54870;BME280;40756;-37.950;145.008;2023-08-21T01:34:04;101678.42;;;19.24;38.98
54870;BME280;40756;-37.950;145.008;2023-08-21T01:36:33;101676.68;;;19.61;38.53
54870;BME280;40756;-37.950;145.008;2023-08-21T01:39:04;101670.65;;;18.53;38.78
54870;BME280;40756;-37.950;145.008;2023-08-21T01:41:34;101662.56;;;18.03;38.34
54870;BME280;40756;-37.950;145.008;2023-08-21T01:44:03;101658.33;;;18.86;37.82
54870;BME280;40756;-37.950;145.008;2023-08-21T01:46:33;101656.32;;;18.67;38.65
54870;BME280;40756;-37.950;145.008;2023-08-21T01:49:02;101651.95;;;19.20;38.26
54870;BME280;40756;-37.950;145.008;2023-08-21T01:51:32;101648.76;;;18.54;38.80
54870;BME280;40756;-37.950;145.008;2023-08-21T01:54:01;101646.25;;;18.18;38.83
54870;BME280;40756;-37.950;145.008;2023-08-21T01:56:31;101643.12;;;18.55;38.74
54870;BME280;40756;-37.950;145.008;2023-08-21T01:59:00;101643.31;;;18.58;38.65
54870;BME280;40756;-37.950;145.008;2023-08-21T02:01:30;101638.50;;;18.33;39.08
54870;BME280;40756;-37.950;145.008;2023-08-21T02:03:59;101628.34;;;18.49;38.39
54870;BME280;40756;-37.950;145.008;2023-08-21T02:06:29;101626.01;;;19.37;38.09
54870;BME280;40756;-37.950;145.008;2023-08-21T02:08:59;101623.09;;;19.24;37.89
54870;BME280;40756;-37.950;145.008;2023-08-21T02:11:28;101604.29;;;19.76;37.13
54870;BME280;40756;-37.950;145.008;2023-08-21T02:13:58;101612.84;;;19.37;37.44
54870;BME280;40756;-37.950;145.008;2023-08-21T02:16:27;101604.02;;;19.19;36.55
54870;BME280;40756;-37.950;145.008;2023-08-21T02:18:57;101594.78;;;19.68;36.42
54870;BME280;40756;-37.950;145.008;2023-08-21T02:21:27;101591.53;;;19.31;36.78
54870;BME280;40756;-37.950;145.008;2023-08-21T02:23:56;101583.95;;;19.29;36.71
54870;BME280;40756;-37.950;145.008;2023-08-21T02:26:26;101589.70;;;20.34;35.98
54870;BME280;40756;-37.950;145.008;2023-08-21T02:28:55;101583.90;;;19.58;35.94
54870;BME280;40756;-37.950;145.008;2023-08-21T02:31:25;101581.02;;;19.87;35.77
54870;BME280;40756;-37.950;145.008;2023-08-21T02:33:54;101572.63;;;20.04;35.61
54870;BME280;40756;-37.950;145.008;2023-08-21T02:36:24;101568.77;;;21.01;34.92
54870;BME280;40756;-37.950;145.008;2023-08-21T02:38:54;101569.40;;;20.42;35.16
54870;BME280;40756;-37.950;145.008;2023-08-21T02:41:23;101561.54;;;20.65;34.40
54870;BME280;40756;-37.950;145.008;2023-08-21T02:43:53;101554.03;;;20.81;33.83
54870;BME280;40756;-37.950;145.008;2023-08-21T02:46:22;101560.45;;;20.30;34.56
54870;BME280;40756;-37.950;145.008;2023-08-21T02:48:52;101556.84;;;20.00;34.69
54870;BME280;40756;-37.950;145.008;2023-08-21T02:51:21;101568.03;;;19.56;35.38
54870;BME280;40756;-37.950;145.008;2023-08-21T02:53:51;101561.71;;;19.22;35.77
54870;BME280;40756;-37.950;145.008;2023-08-21T02:56:20;101552.69;;;19.79;35.38
54870;BME280;40756;-37.950;145.008;2023-08-21T02:58:49;101552.28;;;20.13;34.86
54870;BME280;40756;-37.950;145.008;2023-08-21T03:01:19;101541.57;;;20.28;34.61
54870;BME280;40756;-37.950;145.008;2023-08-21T03:03:48;101532.86;;;20.96;34.23
54870;BME280;40756;-37.950;145.008;2023-08-21T03:06:18;101538.66;;;19.87;34.84
54870;BME280;40756;-37.950;145.008;2023-08-21T03:08:47;101520.71;;;20.44;34.41
54870;BME280;40756;-37.950;145.008;2023-08-21T03:11:17;101522.16;;;20.58;34.25
54870;BME280;40756;-37.950;145.008;2023-08-21T03:13:47;101523.94;;;20.89;34.06
54870;BME280;40756;-37.950;145.008;2023-08-21T03:16:16;101524.54;;;20.42;34.48
54870;BME280;40756;-37.950;145.008;2023-08-21T03:19:02;101514.66;;;20.59;34.74
54870;BME280;40756;-37.950;145.008;2023-08-21T03:21:32;101501.09;;;21.68;33.52
54870;BME280;40756;-37.950;145.008;2023-08-21T03:24:01;101497.91;;;21.84;32.68
54870;BME280;40756;-37.950;145.008;2023-08-21T03:26:30;101487.69;;;22.54;31.95
54870;BME280;40756;-37.950;145.008;2023-08-21T03:29:00;101484.64;;;22.44;31.69
54870;BME280;40756;-37.950;145.008;2023-08-21T03:31:30;101485.37;;;22.16;32.28
54870;BME280;40756;-37.950;145.008;2023-08-21T03:34:00;101487.88;;;22.40;31.17
54870;BME280;40756;-37.950;145.008;2023-08-21T03:36:30;101482.46;;;23.09;30.23
54870;BME280;40756;-37.950;145.008;2023-08-21T03:39:00;101473.16;;;22.48;30.80
54870;BME280;40756;-37.950;145.008;2023-08-21T03:41:29;101483.13;;;21.84;31.56
54870;BME280;40756;-37.950;145.008;2023-08-21T03:43:59;101474.78;;;21.84;32.12
54870;BME280;40756;-37.950;145.008;2023-08-21T03:46:28;101471.46;;;22.71;31.46
54870;BME280;40756;-37.950;145.008;2023-08-21T03:48:58;101463.56;;;23.38;30.74
54870;BME280;40756;-37.950;145.008;2023-08-21T03:51:27;101468.63;;;23.49;30.17
54870;BME280;40756;-37.950;145.008;2023-08-21T03:53:56;101472.52;;;22.89;30.96
54870;BME280;40756;-37.950;145.008;2023-08-21T03:56:26;101462.32;;;21.58;31.85
54870;BME280;40756;-37.950;145.008;2023-08-21T03:58:55;101463.16;;;19.71;34.54
54870;BME280;40756;-37.950;145.008;2023-08-21T04:01:25;101470.69;;;18.76;36.75
54870;BME280;40756;-37.950;145.008;2023-08-21T04:03:54;101470.76;;;18.11;37.84
54870;BME280;40756;-37.950;145.008;2023-08-21T04:06:24;101458.51;;;18.96;37.86
54870;BME280;40756;-37.950;145.008;2023-08-21T04:08:53;101456.41;;;18.98;37.59
54870;BME280;40756;-37.950;145.008;2023-08-21T04:11:23;101459.06;;;18.87;38.26
54870;BME280;40756;-37.950;145.008;2023-08-21T04:13:53;101448.79;;;18.84;38.14
54870;BME280;40756;-37.950;145.008;2023-08-21T04:16:22;101447.32;;;18.74;38.17
54870;BME280;40756;-37.950;145.008;2023-08-21T04:18:52;101453.27;;;18.42;38.87
54870;BME280;40756;-37.950;145.008;2023-08-21T04:21:21;101458.38;;;18.56;39.24
54870;BME280;40756;-37.950;145.008;2023-08-21T04:23:51;101456.11;;;18.89;39.28
54870;BME280;40756;-37.950;145.008;2023-08-21T04:26:20;101446.91;;;18.39;39.49
54870;BME280;40756;-37.950;145.008;2023-08-21T04:28:50;101445.78;;;17.73;40.25
54870;BME280;40756;-37.950;145.008;2023-08-21T04:31:19;101432.67;;;18.40;40.01
54870;BME280;40756;-37.950;145.008;2023-08-21T04:33:49;101433.88;;;18.60;39.27
54870;BME280;40756;-37.950;145.008;2023-08-21T04:36:18;101427.50;;;18.61;39.20
54870;BME280;40756;-37.950;145.008;2023-08-21T04:38:48;101426.81;;;18.23;39.83
54870;BME280;40756;-37.950;145.008;2023-08-21T04:41:17;101412.07;;;19.24;39.04
54870;BME280;40756;-37.950;145.008;2023-08-21T04:43:47;101413.89;;;17.91;40.12
54870;BME280;40756;-37.950;145.008;2023-08-21T04:46:16;101406.87;;;18.17;39.95
54870;BME280;40756;-37.950;145.008;2023-08-21T04:48:46;101413.71;;;18.42;39.78
54870;BME280;40756;-37.950;145.008;2023-08-21T04:51:15;101407.41;;;18.09;40.65
54870;BME280;40756;-37.950;145.008;2023-08-21T04:53:45;101403.02;;;18.10;42.37
54870;BME280;40756;-37.950;145.008;2023-08-21T04:56:14;101404.40;;;16.61;43.60
54870;BME280;40756;-37.950;145.008;2023-08-21T04:58:44;101410.40;;;17.50;43.08
54870;BME280;40756;-37.950;145.008;2023-08-21T05:01:14;101404.33;;;17.47;42.68
54870;BME280;40756;-37.950;145.008;2023-08-21T05:03:43;101402.80;;;17.51;42.42
54870;BME280;40756;-37.950;145.008;2023-08-21T05:06:13;101403.24;;;17.71;42.27
54870;BME280;40756;-37.950;145.008;2023-08-21T05:08:43;101402.21;;;17.44;42.20
54870;BME280;40756;-37.950;145.008;2023-08-21T05:11:18;101402.32;;;18.11;42.35
54870;BME280;40756;-37.950;145.008;2023-08-21T05:13:49;101399.27;;;18.24;41.15
54870;BME280;40756;-37.950;145.008;2023-08-21T05:16:18;101400.74;;;17.81;41.17
54870;BME280;40756;-37.950;145.008;2023-08-21T05:18:47;101402.49;;;18.53;40.42
54870;BME280;40756;-37.950;145.008;2023-08-21T05:21:17;101400.54;;;18.46;40.05
54870;BME280;40756;-37.950;145.008;2023-08-21T05:23:46;101408.80;;;18.12;40.55
54870;BME280;40756;-37.950;145.008;2023-08-21T05:26:16;101408.95;;;17.93;42.51
54870;BME280;40756;-37.950;145.008;2023-08-21T05:28:45;101409.36;;;18.83;40.69
54870;BME280;40756;-37.950;145.008;2023-08-21T05:31:15;101410.63;;;17.57;42.41
54870;BME280;40756;-37.950;145.008;2023-08-21T05:33:44;101409.77;;;18.16;41.58
54870;BME280;40756;-37.950;145.008;2023-08-21T05:36:14;101410.73;;;18.06;41.46
54870;BME280;40756;-37.950;145.008;2023-08-21T05:38:43;101415.36;;;18.53;41.52
54870;BME280;40756;-37.950;145.008;2023-08-21T05:41:13;101415.03;;;18.49;41.78
54870;BME280;40756;-37.950;145.008;2023-08-21T05:43:42;101411.22;;;18.20;41.71
54870;BME280;40756;-37.950;145.008;2023-08-21T05:46:12;101410.52;;;17.96;41.88
54870;BME280;40756;-37.950;145.008;2023-08-21T05:48:41;101401.03;;;17.90;42.09
54870;BME280;40756;-37.950;145.008;2023-08-21T05:51:11;101405.36;;;17.77;42.70
54870;BME280;40756;-37.950;145.008;2023-08-21T05:53:41;101393.75;;;16.93;44.08
54870;BME280;40756;-37.950;145.008;2023-08-21T05:56:10;101388.30;;;17.96;43.23
54870;BME280;40756;-37.950;145.008;2023-08-21T05:58:40;101391.14;;;17.34;43.55
54870;BME280;40756;-37.950;145.008;2023-08-21T06:01:10;101381.12;;;17.74;42.89
54870;BME280;40756;-37.950;145.008;2023-08-21T06:03:40;101382.41;;;16.49;44.48
54870;BME280;40756;-37.950;145.008;2023-08-21T06:06:09;101389.44;;;17.28;44.02
54870;BME280;40756;-37.950;145.008;2023-08-21T06:08:39;101387.22;;;17.40;43.53
54870;BME280;40756;-37.950;145.008;2023-08-21T06:11:08;101385.92;;;17.52;43.70
54870;BME280;40756;-37.950;145.008;2023-08-21T06:13:38;101391.74;;;17.60;44.10
54870;BME280;40756;-37.950;145.008;2023-08-21T06:16:09;101386.58;;;17.22;44.90
54870;BME280;40756;-37.950;145.008;2023-08-21T06:18:38;101396.96;;;17.78;44.72
54870;BME280;40756;-37.950;145.008;2023-08-21T06:21:08;101385.89;;;17.53;45.32
54870;BME280;40756;-37.950;145.008;2023-08-21T06:23:37;101377.54;;;17.62;44.80
54870;BME280;40756;-37.950;145.008;2023-08-21T06:26:06;101370.67;;;17.95;44.00
54870;BME280;40756;-37.950;145.008;2023-08-21T06:28:36;101366.42;;;17.96;43.57
54870;BME280;40756;-37.950;145.008;2023-08-21T06:31:05;101355.51;;;18.84;42.01
54870;BME280;40756;-37.950;145.008;2023-08-21T06:33:38;101357.28;;;18.86;41.88
54870;BME280;40756;-37.950;145.008;2023-08-21T06:36:07;101364.49;;;18.82;41.66
54870;BME280;40756;-37.950;145.008;2023-08-21T06:38:36;101365.58;;;19.16;40.81
54870;BME280;40756;-37.950;145.008;2023-08-21T06:41:06;101362.30;;;18.90;40.56
54870;BME280;40756;-37.950;145.008;2023-08-21T06:43:35;101360.40;;;19.20;40.29
54870;BME280;40756;-37.950;145.008;2023-08-21T06:46:05;101363.52;;;18.52;41.21
54870;BME280;40756;-37.950;145.008;2023-08-21T06:48:37;101360.42;;;18.91;40.93
54870;BME280;40756;-37.950;145.008;2023-08-21T06:51:08;101367.85;;;19.40;40.54
54870;BME280;40756;-37.950;145.008;2023-08-21T06:53:37;101366.73;;;18.17;42.18
54870;BME280;40756;-37.950;145.008;2023-08-21T06:56:08;101363.65;;;18.60;41.56
54870;BME280;40756;-37.950;145.008;2023-08-21T06:58:38;101364.16;;;17.53;43.22
54870;BME280;40756;-37.950;145.008;2023-08-21T07:01:07;101363.34;;;17.73;43.43
54870;BME280;40756;-37.950;145.008;2023-08-21T07:03:37;101358.14;;;17.58;43.37
54870;BME280;40756;-37.950;145.008;2023-08-21T07:06:06;101360.44;;;16.78;44.90
54870;BME280;40756;-37.950;145.008;2023-08-21T07:08:36;101373.79;;;17.44;44.29
54870;BME280;40756;-37.950;145.008;2023-08-21T07:11:06;101382.00;;;17.70;43.88
54870;BME280;40756;-37.950;145.008;2023-08-21T07:13:36;101372.09;;;17.77;43.94
54870;BME280;40756;-37.950;145.008;2023-08-21T07:16:06;101381.59;;;17.40;44.24
54870;BME280;40756;-37.950;145.008;2023-08-21T07:18:37;101384.36;;;17.77;43.79
54870;BME280;40756;-37.950;145.008;2023-08-21T07:21:07;101375.09;;;17.00;45.16
54870;BME280;40756;-37.950;145.008;2023-08-21T07:23:37;101377.34;;;16.76;45.35
54870;BME280;40756;-37.950;145.008;2023-08-21T07:26:06;101369.45;;;17.13;45.11
54870;BME280;40756;-37.950;145.008;2023-08-21T07:28:36;101366.35;;;16.55;46.58
54870;BME280;40756;-37.950;145.008;2023-08-21T07:31:05;101364.49;;;17.19;45.41
54870;BME280;40756;-37.950;145.008;2023-08-21T07:33:35;101366.32;;;17.20;45.12
54870;BME280;40756;-37.950;145.008;2023-08-21T07:36:05;101361.14;;;17.68;44.39
54870;BME280;40756;-37.950;145.008;2023-08-21T07:38:35;101362.26;;;17.99;43.97
54870;BME280;40756;-37.950;145.008;2023-08-21T07:41:06;101360.50;;;18.08;43.76
54870;BME280;40756;-37.950;145.008;2023-08-21T07:43:36;101363.01;;;18.22;43.49
54870;BME280;40756;-37.950;145.008;2023-08-21T07:46:06;101363.08;;;17.92;43.23
54870;BME280;40756;-37.950;145.008;2023-08-21T07:48:37;101351.84;;;18.11;43.21
54870;BME280;40756;-37.950;145.008;2023-08-21T07:51:06;101350.64;;;17.90;43.11
54870;BME280;40756;-37.950;145.008;2023-08-21T07:53:36;101350.85;;;17.54;43.82
54870;BME280;40756;-37.950;145.008;2023-08-21T07:56:06;101346.81;;;18.09;43.16
54870;BME280;40756;-37.950;145.008;2023-08-21T07:58:36;101347.35;;;17.62;43.63
54870;BME280;40756;-37.950;145.008;2023-08-21T08:01:05;101352.56;;;17.90;43.65
54870;BME280;40756;-37.950;145.008;2023-08-21T08:03:35;101352.94;;;17.98;43.20
54870;BME280;40756;-37.950;145.008;2023-08-21T08:06:04;101359.18;;;17.59;43.79
54870;BME280;40756;-37.950;145.008;2023-08-21T08:08:34;101359.30;;;17.51;44.33
54870;BME280;40756;-37.950;145.008;2023-08-21T08:11:04;101363.64;;;17.33;44.53
54870;BME280;40756;-37.950;145.008;2023-08-21T08:13:34;101365.59;;;17.57;44.33
54870;BME280;40756;-37.950;145.008;2023-08-21T08:16:03;101366.39;;;17.25;44.47
54870;BME280;40756;-37.950;145.008;2023-08-21T08:18:33;101364.24;;;17.40;44.57
54870;BME280;40756;-37.950;145.008;2023-08-21T08:21:04;101359.71;;;17.62;44.41
54870;BME280;40756;-37.950;145.008;2023-08-21T08:23:34;101363.18;;;17.51;44.62
54870;BME280;40756;-37.950;145.008;2023-08-21T08:26:04;101362.26;;;17.57;44.56
54870;BME280;40756;-37.950;145.008;2023-08-21T08:28:33;101361.06;;;17.20;45.16
54870;BME280;40756;-37.950;145.008;2023-08-21T08:31:02;101363.87;;;17.36;45.18
54870;BME280;40756;-37.950;145.008;2023-08-21T08:33:32;101363.21;;;17.92;44.23
54870;BME280;40756;-37.950;145.008;2023-08-21T08:36:01;101366.53;;;17.22;45.15
54870;BME280;40756;-37.950;145.008;2023-08-21T08:38:31;101366.22;;;17.41;44.83
54870;BME280;40756;-37.950;145.008;2023-08-21T08:41:05;101366.01;;;17.33;45.19
54870;BME280;40756;-37.950;145.008;2023-08-21T08:43:38;101362.44;;;17.41;45.17
54870;BME280;40756;-37.950;145.008;2023-08-21T08:46:09;101358.64;;;17.07;45.78
54870;BME280;40756;-37.950;145.008;2023-08-21T08:48:40;101356.19;;;17.58;45.48
54870;BME280;40756;-37.950;145.008;2023-08-21T08:51:10;101359.06;;;17.08;45.92
54870;BME280;40756;-37.950;145.008;2023-08-21T08:53:40;101361.66;;;17.22;45.76
54870;BME280;40756;-37.950;145.008;2023-08-21T08:56:11;101365.48;;;17.34;45.67
54870;BME280;40756;-37.950;145.008;2023-08-21T08:58:41;101362.08;;;17.09;46.16
54870;BME280;40756;-37.950;145.008;2023-08-21T09:01:11;101359.51;;;17.04;46.19
54870;BME280;40756;-37.950;145.008;2023-08-21T09:03:40;101359.97;;;16.92;46.40
54870;BME280;40756;-37.950;145.008;2023-08-21T09:06:10;101364.71;;;16.97;46.44
54870;BME280;40756;-37.950;145.008;2023-08-21T09:08:39;101363.18;;;16.71;46.69
54870;BME280;40756;-37.950;145.008;2023-08-21T09:11:19;101359.79;;;16.90;46.57
54870;BME280;40756;-37.950;145.008;2023-08-21T09:13:51;101368.53;;;17.34;46.39
54870;BME280;40756;-37.950;145.008;2023-08-21T09:16:23;101366.11;;;17.06;46.40
54870;BME280;40756;-37.950;145.008;2023-08-21T09:18:55;101364.83;;;17.17;46.26
54870;BME280;40756;-37.950;145.008;2023-08-21T09:21:27;101365.73;;;16.94;47.05
54870;BME280;40756;-37.950;145.008;2023-08-21T09:23:59;101368.49;;;16.81;47.00
54870;BME280;40756;-37.950;145.008;2023-08-21T09:26:31;101372.09;;;17.14;46.50
54870;BME280;40756;-37.950;145.008;2023-08-21T09:29:05;101374.23;;;17.14;46.52
54870;BME280;40756;-37.950;145.008;2023-08-21T09:31:35;101372.65;;;17.33;46.28
54870;BME280;40756;-37.950;145.008;2023-08-21T09:34:06;101363.03;;;16.93;46.64
54870;BME280;40756;-37.950;145.008;2023-08-21T09:36:35;101360.80;;;17.14;46.36
54870;BME280;40756;-37.950;145.008;2023-08-21T09:39:07;101363.97;;;17.33;46.28
54870;BME280;40756;-37.950;145.008;2023-08-21T09:41:56;101363.39;;;17.26;46.51
54870;BME280;40756;-37.950;145.008;2023-08-21T09:44:26;101358.72;;;17.06;46.22
54870;BME280;40756;-37.950;145.008;2023-08-21T09:46:55;101358.68;;;17.13;46.36
54870;BME280;40756;-37.950;145.008;2023-08-21T09:49:25;101358.58;;;17.10;46.40
54870;BME280;40756;-37.950;145.008;2023-08-21T09:51:55;101356.29;;;17.08;46.57
54870;BME280;40756;-37.950;145.008;2023-08-21T09:54:25;101354.95;;;17.12;46.49
54870;BME280;40756;-37.950;145.008;2023-08-21T09:56:55;101357.44;;;17.10;46.60
54870;BME280;40756;-37.950;145.008;2023-08-21T09:59:25;101353.03;;;17.17;46.42
54870;BME280;40756;-37.950;145.008;2023-08-21T10:01:54;101354.51;;;17.25;46.35
54870;BME280;40756;-37.950;145.008;2023-08-21T10:04:29;101353.92;;;16.97;46.25
54870;BME280;40756;-37.950;145.008;2023-08-21T10:06:59;101350.83;;;17.03;46.49
54870;BME280;40756;-37.950;145.008;2023-08-21T10:09:30;101348.75;;;17.20;46.41
54870;BME280;40756;-37.950;145.008;2023-08-21T10:12:00;101343.85;;;17.03;46.45
54870;BME280;40756;-37.950;145.008;2023-08-21T10:14:29;101340.91;;;17.15;46.52
54870;BME280;40756;-37.950;145.008;2023-08-21T10:16:59;101342.87;;;17.05;46.54
54870;BME280;40756;-37.950;145.008;2023-08-21T10:19:32;101342.34;;;16.63;46.98
54870;BME280;40756;-37.950;145.008;2023-08-21T10:22:03;101348.86;;;17.03;46.68
54870;BME280;40756;-37.950;145.008;2023-08-21T10:24:36;101347.63;;;16.58;47.23
54870;BME280;40756;-37.950;145.008;2023-08-21T10:27:07;101347.49;;;17.01;46.84
54870;BME280;40756;-37.950;145.008;2023-08-21T10:29:38;101345.10;;;17.18;46.70
54870;BME280;40756;-37.950;145.008;2023-08-21T10:32:08;101344.02;;;17.26;46.51
54870;BME280;40756;-37.950;145.008;2023-08-21T10:34:38;101344.89;;;17.09;46.63
54870;BME280;40756;-37.950;145.008;2023-08-21T10:37:10;101348.75;;;17.09;46.54
54870;BME280;40756;-37.950;145.008;2023-08-21T10:39:52;101345.93;;;17.07;46.66
54870;BME280;40756;-37.950;145.008;2023-08-21T10:42:38;101343.38;;;17.15;46.52
54870;BME280;40756;-37.950;145.008;2023-08-21T10:45:12;101340.59;;;17.04;46.69
54870;BME280;40756;-37.950;145.008;2023-08-21T10:47:42;101336.97;;;16.88;47.00
54870;BME280;40756;-37.950;145.008;2023-08-21T10:50:12;101338.72;;;16.99;47.06
54870;BME280;40756;-37.950;145.008;2023-08-21T10:52:43;101334.29;;;16.86;47.18
54870;BME280;40756;-37.950;145.008;2023-08-21T10:55:13;101336.72;;;16.91;47.19
54870;BME280;40756;-37.950;145.008;2023-08-21T10:57:45;101339.41;;;16.83;47.31
54870;BME280;40756;-37.950;145.008;2023-08-21T11:00:16;101337.03;;;16.88;47.05
54870;BME280;40756;-37.950;145.008;2023-08-21T11:02:48;101340.87;;;17.09;46.60
54870;BME280;40756;-37.950;145.008;2023-08-21T11:05:18;101338.52;;;16.97;46.95
54870;BME280;40756;-37.950;145.008;2023-08-21T11:07:48;101335.40;;;17.00;46.76
54870;BME280;40756;-37.950;145.008;2023-08-21T11:10:22;101334.78;;;16.92;46.88
54870;BME280;40756;-37.950;145.008;2023-08-21T11:12:54;101327.24;;;16.95;46.88
54870;BME280;40756;-37.950;145.008;2023-08-21T11:15:24;101326.08;;;16.86;47.00
54870;BME280;40756;-37.950;145.008;2023-08-21T11:17:56;101320.37;;;16.83;47.03
54870;BME280;40756;-37.950;145.008;2023-08-21T11:20:30;101313.64;;;16.63;47.38
54870;BME280;40756;-37.950;145.008;2023-08-21T11:23:02;101310.75;;;16.79;47.74
54870;BME280;40756;-37.950;145.008;2023-08-21T11:25:32;101309.30;;;16.46;47.81
54870;BME280;40756;-37.950;145.008;2023-08-21T11:28:02;101312.78;;;16.30;48.06
54870;BME280;40756;-37.950;145.008;2023-08-21T11:30:32;101308.84;;;16.74;47.89
54870;BME280;40756;-37.950;145.008;2023-08-21T11:33:10;101308.83;;;16.71;48.04
54870;BME280;40756;-37.950;145.008;2023-08-21T11:35:40;101303.48;;;16.37;48.30
54870;BME280;40756;-37.950;145.008;2023-08-21T11:38:17;101297.58;;;16.56;48.48
54870;BME280;40756;-37.950;145.008;2023-08-21T11:40:56;101295.70;;;16.60;48.31
54870;BME280;40756;-37.950;145.008;2023-08-21T11:43:37;101294.08;;;16.62;48.35
54870;BME280;40756;-37.950;145.008;2023-08-21T11:46:08;101293.12;;;16.64;48.30
54870;BME280;40756;-37.950;145.008;2023-08-21T11:48:40;101290.85;;;16.80;48.09
54870;BME280;40756;-37.950;145.008;2023-08-21T11:51:10;101285.99;;;16.55;47.63
54870;BME280;40756;-37.950;145.008;2023-08-21T11:53:41;101279.59;;;16.63;47.74
54870;BME280;40756;-37.950;145.008;2023-08-21T11:56:14;101276.15;;;16.63;47.82
54870;BME280;40756;-37.950;145.008;2023-08-21T11:58:44;101273.23;;;16.59;47.80
54870;BME280;40756;-37.950;145.008;2023-08-21T12:01:18;101273.12;;;16.53;47.87
54870;BME280;40756;-37.950;145.008;2023-08-21T12:03:48;101272.19;;;16.51;48.00
54870;BME280;40756;-37.950;145.008;2023-08-21T12:06:17;101272.75;;;16.51;48.15
54870;BME280;40756;-37.950;145.008;2023-08-21T12:08:46;101268.72;;;16.53;48.15
54870;BME280;40756;-37.950;145.008;2023-08-21T12:11:16;101268.64;;;16.92;47.98
54870;BME280;40756;-37.950;145.008;2023-08-21T12:13:46;101267.94;;;16.84;48.19
54870;BME280;40756;-37.950;145.008;2023-08-21T12:16:16;101261.43;;;16.53;48.29
54870;BME280;40756;-37.950;145.008;2023-08-21T12:18:45;101256.07;;;16.62;48.30
54870;BME280;40756;-37.950;145.008;2023-08-21T12:21:14;101249.55;;;16.61;48.31
54870;BME280;40756;-37.950;145.008;2023-08-21T12:23:45;101248.75;;;16.78;48.47
54870;BME280;40756;-37.950;145.008;2023-08-21T12:26:15;101249.32;;;16.42;48.68
54870;BME280;40756;-37.950;145.008;2023-08-21T12:28:44;101243.24;;;16.53;48.42
54870;BME280;40756;-37.950;145.008;2023-08-21T12:31:14;101239.00;;;16.46;48.47
54870;BME280;40756;-37.950;145.008;2023-08-21T12:33:43;101236.59;;;16.53;48.37
54870;BME280;40756;-37.950;145.008;2023-08-21T12:36:13;101239.22;;;16.44;48.43